createdAt,value
2023-06-19T06:16:10.787Z,3.08
2023-06-19T06:21:15.493Z,3.17
2023-06-19T06:26:19.915Z,3.40
2023-06-19T06:31:25.082Z,3.58
2023-06-19T06:36:36.231Z,3.73
2023-06-19T06:41:41.198Z,3.58
2023-06-19T06:46:49.254Z,3.72
2023-06-19T06:51:56.159Z,3.80
2023-06-19T06:57:01.376Z,4.01
2023-06-19T07:02:04.971Z,4.30
2023-06-19T07:07:09.972Z,4.46
2023-06-19T07:12:13.743Z,4.59
2023-06-19T07:17:19.709Z,4.95
2023-06-19T07:22:25.825Z,5.27
2023-06-19T07:27:29.891Z,5.71
2023-06-19T07:32:33.776Z,5.84
2023-06-19T07:37:38.550Z,5.85
2023-06-19T07:42:44.220Z,5.95
2023-06-19T07:47:55.703Z,6.03
2023-06-19T07:53:00.458Z,6.41
2023-06-19T07:58:05.961Z,6.40
2023-06-19T08:03:11.743Z,6.63
2023-06-19T08:08:16.653Z,6.76
2023-06-19T08:13:20.048Z,6.93
2023-06-19T08:18:23.404Z,6.81
2023-06-19T08:23:28.239Z,6.75
2023-06-19T08:28:32.278Z,6.69
2023-06-19T08:33:36.224Z,6.57
2023-06-19T08:38:43.337Z,6.70
2023-06-19T08:43:46.713Z,6.94
2023-06-19T08:48:50.071Z,6.82
2023-06-19T08:53:57.691Z,6.89
2023-06-19T08:59:09.296Z,6.97
2023-06-19T09:04:13.733Z,6.94
2023-06-19T09:09:18.938Z,6.83
2023-06-19T09:14:26.645Z,6.68
2023-06-19T09:19:32.681Z,6.75
2023-06-19T09:24:38.741Z,6.61
2023-06-19T09:29:43.050Z,6.87
2023-06-19T09:34:46.909Z,7.03
2023-06-19T09:39:53.808Z,7.43
2023-06-19T09:45:00.588Z,7.59
2023-06-19T09:50:08.321Z,7.72
2023-06-19T09:55:14.777Z,7.56
2023-06-19T10:00:23.390Z,7.92
2023-06-19T10:05:31.469Z,8.33
2023-06-19T10:10:37.730Z,8.66
2023-06-19T10:15:42.736Z,9.00
2023-06-19T10:20:47.789Z,9.17
2023-06-19T10:25:59.457Z,9.24
2023-06-19T10:31:06.013Z,9.20
2023-06-19T10:36:15.922Z,9.18
2023-06-19T10:41:23.755Z,8.98
2023-06-19T10:46:31.262Z,9.27
2023-06-19T10:51:36.503Z,9.70
2023-06-19T10:56:41.395Z,9.64
2023-06-19T11:01:46.130Z,9.45
2023-06-19T11:06:49.509Z,9.58
2023-06-19T11:11:54.329Z,10.01
2023-06-19T11:16:57.755Z,9.59
2023-06-19T11:22:02.023Z,9.89
2023-06-19T11:27:07.127Z,10.27
2023-06-19T11:32:11.679Z,10.30
2023-06-19T11:37:18.938Z,10.80
2023-06-19T11:42:26.422Z,10.86
2023-06-19T11:47:32.216Z,11.61
2023-06-19T11:52:35.813Z,11.64
2023-06-19T11:57:40.779Z,11.86
2023-06-19T12:02:44.361Z,12.24
2023-06-19T12:07:50.350Z,12.23
2023-06-19T12:12:55.007Z,11.97
2023-06-19T12:17:59.549Z,11.96
2023-06-19T12:23:03.067Z,11.94
2023-06-19T12:28:09.190Z,11.76
2023-06-19T12:33:14.888Z,12.08
2023-06-19T12:38:18.965Z,12.46
2023-06-19T12:43:23.727Z,13.11
2023-06-19T12:48:27.442Z,13.36
2023-06-19T12:53:31.000Z,13.47
2023-06-19T12:58:35.894Z,13.25
2023-06-19T13:03:39.436Z,13.18
2023-06-19T13:08:43.813Z,12.88
2023-06-19T13:13:48.511Z,12.85
2023-06-19T13:18:52.073Z,12.73
2023-06-19T13:23:55.556Z,12.90
2023-06-19T13:29:01.785Z,12.70
2023-06-19T13:34:05.181Z,12.54
2023-06-19T13:39:08.685Z,12.77
2023-06-19T13:44:16.162Z,12.63
2023-06-19T13:49:19.497Z,12.62
2023-06-19T13:54:25.793Z,12.34
2023-06-19T13:59:30.537Z,12.29
2023-06-19T14:04:33.949Z,12.35
2023-06-19T14:09:37.412Z,12.31
2023-06-19T14:14:42.206Z,12.34
2023-06-19T14:19:45.572Z,11.89
2023-06-19T14:24:51.495Z,12.47
2023-06-19T14:29:56.264Z,12.42
2023-06-19T14:34:59.825Z,12.41
2023-06-19T14:40:03.194Z,12.62
2023-06-19T14:45:08.815Z,12.59
2023-06-19T14:50:12.323Z,12.76
2023-06-19T14:55:15.753Z,12.97
2023-06-19T15:00:20.702Z,13.07
2023-06-19T15:05:24.204Z,12.85
2023-06-19T15:10:27.980Z,12.83
2023-06-19T15:15:33.030Z,12.74
2023-06-19T15:20:36.637Z,12.84
2023-06-19T15:25:41.530Z,12.91
2023-06-19T15:30:46.370Z,12.87
2023-06-19T15:35:50.735Z,12.77
2023-06-19T15:40:54.160Z,12.25
2023-06-19T15:46:12.903Z,12.37
2023-06-19T15:51:17.734Z,12.42
2023-06-19T15:56:21.083Z,12.37
2023-06-19T16:01:25.365Z,12.71
2023-06-19T16:06:30.101Z,12.88
2023-06-19T16:11:33.933Z,12.66
2023-06-19T16:16:38.040Z,12.75
2023-06-19T16:21:42.958Z,12.73
2023-06-19T16:26:52.312Z,12.75
2023-06-19T16:32:08.177Z,12.76
2023-06-19T16:37:17.905Z,12.74
2023-06-19T16:42:23.561Z,12.57
2023-06-19T16:47:28.250Z,12.53
2023-06-19T16:52:35.525Z,12.40
2023-06-19T16:57:38.878Z,12.26
2023-06-19T17:02:42.448Z,11.95
2023-06-19T17:07:47.467Z,11.62
2023-06-19T17:12:50.800Z,11.46
2023-06-19T17:17:54.185Z,11.41
2023-06-19T17:22:59.486Z,11.35
2023-06-19T17:28:02.837Z,11.48
2023-06-19T17:33:07.585Z,11.40
2023-06-19T17:38:12.536Z,11.37
2023-06-19T17:43:15.945Z,11.25
2023-06-19T17:48:21.495Z,11.07
2023-06-19T17:53:26.239Z,10.98
2023-06-19T17:58:30.066Z,10.91
2023-06-19T18:03:33.496Z,10.74
2023-06-19T18:08:38.243Z,10.66
2023-06-19T18:13:44.120Z,10.58
2023-06-19T18:18:50.413Z,10.52
2023-06-19T18:23:55.158Z,10.32
2023-06-19T18:28:58.512Z,10.27
2023-06-19T18:34:01.915Z,10.11
2023-06-19T18:39:06.897Z,9.98
2023-06-19T18:44:10.401Z,9.83
2023-06-19T18:49:13.857Z,9.68
2023-06-19T18:54:22.052Z,9.51
2023-06-19T18:59:27.833Z,9.33
2023-06-19T19:04:31.232Z,9.12
2023-06-19T19:09:36.069Z,8.93
2023-06-19T19:14:41.464Z,8.82
2023-06-19T19:19:48.139Z,8.56
2023-06-19T19:24:52.938Z,8.37
2023-06-19T19:29:56.361Z,8.17
2023-06-19T19:35:00.054Z,8.03
2023-06-19T19:40:05.603Z,7.87
2023-06-19T19:45:09.721Z,7.66
2023-06-19T19:50:15.558Z,7.52
2023-06-19T19:55:20.446Z,7.32
2023-06-19T20:00:25.675Z,7.13
2023-06-19T20:05:29.299Z,6.95
2023-06-19T20:10:34.110Z,6.82
2023-06-19T20:15:37.576Z,6.68
2023-06-19T20:20:41.199Z,6.53
2023-06-19T20:25:46.739Z,6.43
2023-06-19T20:30:50.434Z,6.23
2023-06-19T20:35:56.527Z,6.08
2023-06-19T20:41:01.901Z,6.01
2023-06-19T20:46:05.556Z,5.82
2023-06-19T20:51:09.164Z,5.73
2023-06-19T20:56:14.335Z,5.69
2023-06-19T21:01:18.013Z,5.62
2023-06-19T21:06:22.663Z,5.55
2023-06-19T21:11:27.486Z,5.43
2023-06-19T21:16:31.029Z,5.27
2023-06-19T21:21:35.093Z,5.19
2023-06-19T21:26:39.986Z,5.09
2023-06-19T21:31:44.373Z,4.98
2023-06-19T21:36:47.699Z,4.77
2023-06-19T21:41:54.213Z,4.64
2023-06-19T21:46:57.614Z,4.48
2023-06-19T21:52:02.998Z,4.40
2023-06-19T21:57:07.885Z,4.45
2023-06-19T22:02:15.076Z,4.43
2023-06-19T22:07:19.507Z,4.46
